Terminal Aerodrome Forecast
Issued by NWS Jacksonville, FL

Home | Current Version | Previous Version | Text Only | Print | Product List | Glossary On
Versions: 1 2 3 4 5 6 7 8 9 10 11 12 13 14 15 16 17 18 19 20 21 22 23 24 25 26 27 28 29 30 31 32 33 34 35 36
000
FTUS42 KJAX 301121
TAFJAX
TAF
KJAX 301121Z 3012/0112 25004KT P6SM SCT250
      TEMPO 3012/3013 4SM BR
     FM301600 27008KT P6SM VCSH BKN050
     FM301900 24011KT P6SM VCTS BKN040CB
     FM010000 22006KT P6SM SCT040 BKN100
     FM010400 VRB03KT P6SM BKN250=

USA.gov is the U.S. government's official web portal to all federal, state and local government web resources and services.